createdAt,value
2018-10-19T00:00:54.249Z,76.50
2018-10-19T00:03:21.929Z,76.70
2018-10-19T00:05:49.598Z,77.00
2018-10-19T00:08:17.252Z,78.10
2018-10-19T00:10:51.633Z,78.70
2018-10-19T00:13:19.296Z,78.00
2018-10-19T00:15:47.002Z,78.00
2018-10-19T00:18:14.685Z,78.00
2018-10-19T00:20:42.367Z,78.10
2018-10-19T00:23:10.079Z,78.10
2018-10-19T00:25:37.737Z,78.10
2018-10-19T00:28:05.440Z,77.90
2018-10-19T00:30:33.189Z,78.20
2018-10-19T00:33:00.905Z,78.40
2018-10-19T00:35:28.566Z,77.70
2018-10-19T00:37:56.249Z,78.70
2018-10-19T00:40:23.920Z,78.90
2018-10-19T00:42:51.602Z,78.90
2018-10-19T00:45:23.990Z,79.00
2018-10-19T00:47:51.674Z,79.10
2018-10-19T00:50:19.357Z,79.20
2018-10-19T00:52:47.033Z,79.30
2018-10-19T00:55:14.680Z,79.50
2018-10-19T00:57:42.321Z,79.20
2018-10-19T01:00:09.993Z,79.10
2018-10-19T01:02:37.683Z,79.00
2018-10-19T01:05:05.491Z,79.00
2018-10-19T01:07:33.173Z,79.00
2018-10-19T01:10:00.809Z,79.00
2018-10-19T01:12:28.465Z,79.00
2018-10-19T01:14:56.219Z,79.10
2018-10-19T01:17:23.845Z,79.20
2018-10-19T01:19:51.521Z,79.10
2018-10-19T01:22:19.218Z,79.10
2018-10-19T01:24:46.889Z,79.50
2018-10-19T01:27:14.762Z,79.80
2018-10-19T01:29:42.379Z,79.80
2018-10-19T01:32:10.066Z,79.80
2018-10-19T01:34:37.715Z,79.80
2018-10-19T01:37:05.413Z,79.90
2018-10-19T01:39:33.089Z,80.10
2018-10-19T01:42:00.782Z,80.30
2018-10-19T01:44:28.551Z,80.80
2018-10-19T01:46:56.208Z,80.80
2018-10-19T01:49:23.913Z,80.80
2018-10-19T01:51:51.618Z,80.90
2018-10-19T01:54:19.269Z,81.00
2018-10-19T01:56:46.924Z,80.70
2018-10-19T01:59:14.653Z,80.70
2018-10-19T02:01:42.306Z,80.50
2018-10-19T02:04:10.001Z,80.40
2018-10-19T02:06:37.672Z,80.20
2018-10-19T02:09:06.681Z,80.00
2018-10-19T02:11:34.325Z,80.00
2018-10-19T02:14:02.002Z,80.10
2018-10-19T02:16:29.729Z,80.00
2018-10-19T02:18:57.393Z,80.00
2018-10-19T02:21:25.053Z,80.10
2018-10-19T02:23:52.734Z,80.20
2018-10-19T02:26:20.428Z,80.30
2018-10-19T02:28:48.086Z,80.20
2018-10-19T02:31:15.765Z,80.20
2018-10-19T02:33:43.443Z,80.20
2018-10-19T02:36:11.120Z,80.30
2018-10-19T02:38:38.798Z,80.30
2018-10-19T02:41:06.542Z,80.40
2018-10-19T02:43:34.262Z,80.40
2018-10-19T02:46:01.929Z,80.80
2018-10-19T02:48:29.590Z,81.40
2018-10-19T02:50:57.397Z,80.90
2018-10-19T02:53:24.980Z,80.80
2018-10-19T02:55:52.640Z,80.60
2018-10-19T02:58:20.334Z,80.60
2018-10-19T03:00:48.008Z,80.70
2018-10-19T03:03:15.768Z,81.20
2018-10-19T03:05:43.411Z,80.90
2018-10-19T03:08:11.105Z,80.90
2018-10-19T03:10:38.761Z,81.10
2018-10-19T03:13:06.443Z,81.10
2018-10-19T03:15:34.113Z,80.70
2018-10-19T03:18:01.797Z,80.80
2018-10-19T03:20:29.469Z,80.60
2018-10-19T03:22:57.200Z,80.50
2018-10-19T03:25:24.873Z,80.40
2018-10-19T03:27:52.533Z,80.40
2018-10-19T03:30:20.251Z,80.40
2018-10-19T03:32:47.914Z,80.40
2018-10-19T03:35:15.614Z,80.30
2018-10-19T03:37:43.282Z,80.20
2018-10-19T03:40:10.961Z,80.30
2018-10-19T03:42:38.621Z,80.40
2018-10-19T03:45:06.699Z,80.60
2018-10-19T03:47:34.456Z,80.70
2018-10-19T03:50:02.162Z,80.70
2018-10-19T03:52:29.862Z,80.70
2018-10-19T03:54:57.524Z,80.70
2018-10-19T03:57:25.180Z,80.70
2018-10-19T03:59:52.861Z,80.70
2018-10-19T04:02:20.519Z,80.80
2018-10-19T04:04:48.195Z,81.00
2018-10-19T04:07:15.896Z,81.20
2018-10-19T04:09:43.565Z,81.20
2018-10-19T04:12:11.261Z,81.20
2018-10-19T04:14:38.955Z,81.20
2018-10-19T04:17:06.691Z,81.10
2018-10-19T04:19:34.337Z,81.10
2018-10-19T04:22:02.021Z,81.10
2018-10-19T04:24:29.673Z,81.10
2018-10-19T04:26:57.436Z,81.50
2018-10-19T04:29:25.058Z,81.40
2018-10-19T04:31:52.752Z,81.50
2018-10-19T04:34:20.429Z,81.30
2018-10-19T04:36:48.160Z,81.40
2018-10-19T04:39:15.869Z,81.40
2018-10-19T04:41:43.582Z,81.50
2018-10-19T04:44:11.213Z,81.70
2018-10-19T04:46:38.914Z,81.50
2018-10-19T04:49:06.577Z,81.00
2018-10-19T04:51:34.285Z,80.90
2018-10-19T04:54:02.017Z,80.70
2018-10-19T04:56:29.729Z,80.40
2018-10-19T04:58:57.547Z,80.20
2018-10-19T05:01:25.209Z,80.30
2018-10-19T05:03:52.918Z,80.20
2018-10-19T05:06:20.614Z,80.20
2018-10-19T05:08:48.319Z,80.30
2018-10-19T05:11:16.099Z,80.20
2018-10-19T05:13:43.713Z,80.20
2018-10-19T05:16:11.404Z,80.10
2018-10-19T05:18:39.085Z,79.90
2018-10-19T05:21:06.782Z,79.80
2018-10-19T05:23:34.461Z,79.60
2018-10-19T05:26:02.191Z,79.50
2018-10-19T05:28:29.819Z,79.30
2018-10-19T05:30:57.514Z,79.50
2018-10-19T05:33:25.256Z,79.50
2018-10-19T05:35:52.914Z,80.10
2018-10-19T05:38:20.606Z,79.70
2018-10-19T05:40:48.276Z,79.90
2018-10-19T05:43:15.963Z,80.20
2018-10-19T05:45:43.609Z,80.40
2018-10-19T05:48:11.314Z,80.60
2018-10-19T05:50:39.001Z,80.70
2018-10-19T05:53:06.707Z,80.80
2018-10-19T05:55:34.402Z,80.90
2018-10-19T05:58:02.089Z,81.00
2018-10-19T06:00:29.831Z,81.10
2018-10-19T06:02:57.510Z,81.20
2018-10-19T06:05:25.220Z,81.30
2018-10-19T06:07:52.970Z,81.40
2018-10-19T06:10:20.673Z,81.70
2018-10-19T06:12:48.456Z,81.80
2018-10-19T06:15:16.204Z,81.80
2018-10-19T06:17:43.857Z,81.70
2018-10-19T06:20:11.542Z,81.80
2018-10-19T06:22:39.245Z,81.80
2018-10-19T06:25:06.984Z,82.00
2018-10-19T06:27:34.757Z,82.20
2018-10-19T06:30:02.519Z,82.60
2018-10-19T06:32:30.217Z,82.60
2018-10-19T06:34:57.900Z,82.80
2018-10-19T06:37:25.564Z,83.10
2018-10-19T06:39:53.247Z,83.10
2018-10-19T06:42:20.934Z,83.10
2018-10-19T06:44:48.642Z,83.10
2018-10-19T06:47:16.405Z,83.30
2018-10-19T06:49:44.023Z,83.60
2018-10-19T06:52:11.729Z,83.50
2018-10-19T06:54:39.418Z,83.60
2018-10-19T06:57:07.091Z,83.70
2018-10-19T06:59:34.816Z,83.90
2018-10-19T07:02:02.529Z,84.00
2018-10-19T07:04:30.186Z,84.10
2018-10-19T07:06:57.890Z,84.40
2018-10-19T07:09:25.545Z,84.10
2018-10-19T07:11:53.202Z,84.10
2018-10-19T07:14:20.882Z,84.10
2018-10-19T07:16:48.562Z,84.10
2018-10-19T07:19:16.286Z,84.20
2018-10-19T07:21:44.024Z,84.20
2018-10-19T07:24:11.633Z,84.20
2018-10-19T07:26:39.337Z,85.00
2018-10-19T07:29:07.061Z,84.60
2018-10-19T07:31:34.714Z,84.60
2018-10-19T07:34:02.425Z,84.70
2018-10-19T07:36:30.168Z,84.70
2018-10-19T07:38:57.809Z,84.80
2018-10-19T07:41:25.513Z,85.10
2018-10-19T07:43:53.175Z,85.20
2018-10-19T07:46:20.861Z,85.20
2018-10-19T07:48:48.566Z,85.30
2018-10-19T07:51:16.239Z,85.30
2018-10-19T07:53:43.896Z,85.20
2018-10-19T07:56:11.678Z,85.50
2018-10-19T07:58:39.311Z,85.60
2018-10-19T08:01:07.022Z,85.60
2018-10-19T08:03:34.696Z,85.50
2018-10-19T08:06:02.646Z,85.70
2018-10-19T08:08:30.329Z,85.70
2018-10-19T08:10:57.996Z,85.90
2018-10-19T08:13:25.669Z,85.80
2018-10-19T08:15:53.348Z,85.80
2018-10-19T08:18:21.055Z,85.90
2018-10-19T08:20:48.762Z,86.00
2018-10-19T08:23:16.444Z,86.00
2018-10-19T08:25:44.958Z,84.70
2018-10-19T08:28:12.662Z,84.70
2018-10-19T08:30:40.354Z,84.70
2018-10-19T08:33:08.049Z,84.70
2018-10-19T08:35:35.729Z,84.70
2018-10-19T08:38:10.197Z,84.70
2018-10-19T08:40:37.885Z,85.00
2018-10-19T08:43:05.919Z,84.90
2018-10-19T08:45:33.557Z,84.80
2018-10-19T08:48:01.310Z,84.90
2018-10-19T08:50:28.968Z,84.90
2018-10-19T08:52:56.665Z,85.00
2018-10-19T08:55:24.373Z,85.00
2018-10-19T08:57:52.151Z,84.90
2018-10-19T09:00:19.811Z,84.70
2018-10-19T09:02:47.481Z,84.60
2018-10-19T09:05:15.159Z,86.00
2018-10-19T09:07:42.847Z,85.90
2018-10-19T09:10:10.526Z,86.40
2018-10-19T09:12:38.335Z,85.90
2018-10-19T09:15:06.418Z,85.90
2018-10-19T09:17:34.099Z,85.90
2018-10-19T09:20:01.763Z,86.30
2018-10-19T09:22:29.438Z,86.20
2018-10-19T09:24:57.140Z,85.90
2018-10-19T09:27:24.804Z,86.30
2018-10-19T09:29:52.474Z,86.10
2018-10-19T09:32:20.174Z,86.20
2018-10-19T09:34:47.865Z,85.70
2018-10-19T09:37:15.566Z,86.30
2018-10-19T09:39:43.230Z,86.90
2018-10-19T09:42:11.105Z,86.80
2018-10-19T09:44:38.771Z,86.20
2018-10-19T09:47:06.740Z,86.50
2018-10-19T09:49:34.389Z,87.00
2018-10-19T09:52:02.105Z,86.80
2018-10-19T09:54:29.780Z,86.90
2018-10-19T09:56:57.563Z,86.60
2018-10-19T09:59:25.217Z,86.60
2018-10-19T10:01:52.899Z,86.00
2018-10-19T10:04:20.615Z,85.20
2018-10-19T10:06:48.289Z,84.80
2018-10-19T10:09:16.785Z,84.80
2018-10-19T10:11:44.513Z,84.30
2018-10-19T10:14:12.221Z,84.20
2018-10-19T10:16:39.966Z,84.00
2018-10-19T10:19:07.800Z,83.70
2018-10-19T10:21:35.493Z,84.30
2018-10-19T10:24:03.257Z,83.70
2018-10-19T10:26:30.916Z,83.40
2018-10-19T10:29:05.857Z,82.40
2018-10-19T10:31:33.541Z,81.90
2018-10-19T10:34:01.344Z,82.20
2018-10-19T10:36:29.000Z,81.90
2018-10-19T10:38:56.728Z,81.40
2018-10-19T10:41:24.448Z,82.00
2018-10-19T10:43:52.161Z,82.00
2018-10-19T10:46:19.841Z,81.40
2018-10-19T10:48:47.495Z,79.80
2018-10-19T10:51:15.175Z,80.40
2018-10-19T10:53:42.845Z,79.90
2018-10-19T10:56:10.568Z,79.70
2018-10-19T10:58:38.233Z,79.00
2018-10-19T11:01:05.979Z,78.30
2018-10-19T11:03:33.639Z,78.40
2018-10-19T11:06:01.285Z,78.70
2018-10-19T11:08:28.950Z,78.50
2018-10-19T11:11:07.554Z,79.60
2018-10-19T11:13:35.281Z,78.10
2018-10-19T11:16:03.036Z,77.40
2018-10-19T11:18:30.694Z,76.90
2018-10-19T11:21:05.100Z,77.70
2018-10-19T11:23:32.817Z,77.40
2018-10-19T11:26:00.540Z,76.70
2018-10-19T11:28:28.445Z,76.00
2018-10-19T11:30:56.177Z,75.00
2018-10-19T11:33:23.887Z,73.40
2018-10-19T11:35:51.615Z,73.20
2018-10-19T11:38:19.276Z,75.10
2018-10-19T11:40:46.973Z,75.00
2018-10-19T11:43:14.693Z,72.70
2018-10-19T11:45:42.334Z,73.50
2018-10-19T11:48:10.031Z,71.80
2018-10-19T11:50:37.688Z,72.60
2018-10-19T11:53:05.370Z,68.50
2018-10-19T11:55:33.101Z,71.00
2018-10-19T11:58:00.797Z,72.60
2018-10-19T12:00:28.478Z,71.40
2018-10-19T12:02:56.146Z,69.70
2018-10-19T12:05:23.849Z,68.10
2018-10-19T12:07:51.520Z,68.20
2018-10-19T12:10:19.200Z,68.30
2018-10-19T12:12:46.968Z,69.30
2018-10-19T12:15:15.788Z,69.30
2018-10-19T12:17:44.156Z,70.90
2018-10-19T12:20:14.048Z,67.80
2018-10-19T12:22:41.698Z,69.00
2018-10-19T12:25:10.376Z,69.60
2018-10-19T12:27:38.586Z,70.30
2018-10-19T12:30:06.809Z,67.20
2018-10-19T12:32:34.532Z,68.90
2018-10-19T12:35:02.276Z,65.60
2018-10-19T12:37:29.946Z,64.50
2018-10-19T12:39:57.652Z,67.70
2018-10-19T12:42:25.345Z,67.30
2018-10-19T12:44:53.117Z,67.80
2018-10-19T12:47:30.984Z,67.50
2018-10-19T12:49:58.612Z,67.60
2018-10-19T12:52:26.341Z,67.40
2018-10-19T12:54:54.034Z,65.30
2018-10-19T12:57:21.738Z,64.00
2018-10-19T12:59:49.420Z,66.00
2018-10-19T13:02:17.105Z,65.30
2018-10-19T13:04:44.800Z,63.80
2018-10-19T13:07:12.658Z,66.10
2018-10-19T13:09:40.803Z,65.60
2018-10-19T13:12:08.618Z,65.10
2018-10-19T13:14:36.288Z,63.80
2018-10-19T13:17:04.057Z,62.80
2018-10-19T13:19:31.786Z,64.00
2018-10-19T13:21:59.442Z,63.20
2018-10-19T13:24:27.216Z,62.10
2018-10-19T13:26:55.014Z,61.40
2018-10-19T13:29:22.713Z,59.90
2018-10-19T13:31:50.384Z,62.00
2018-10-19T13:34:18.105Z,62.80
2018-10-19T13:36:45.934Z,63.50
2018-10-19T13:39:13.965Z,63.10
2018-10-19T13:41:42.096Z,63.40
2018-10-19T13:44:10.046Z,61.20
2018-10-19T13:46:37.813Z,58.80
2018-10-19T13:49:05.748Z,59.00
2018-10-19T13:51:33.917Z,60.10
2018-10-19T13:56:29.553Z,58.00
2018-10-19T13:58:57.263Z,58.60
2018-10-19T14:03:52.501Z,56.50
2018-10-19T14:06:20.200Z,57.90
2018-10-19T14:08:47.948Z,56.70
2018-10-19T14:11:15.873Z,56.20
2018-10-19T14:13:43.518Z,56.80
2018-10-19T14:16:11.209Z,53.70
2018-10-19T14:18:38.920Z,53.00
2018-10-19T14:21:06.686Z,50.70
2018-10-19T14:23:34.336Z,49.30
2018-10-19T14:26:02.041Z,50.20
2018-10-19T14:28:29.705Z,52.40
2018-10-19T14:30:57.397Z,51.00
2018-10-19T14:33:25.166Z,51.10
2018-10-19T14:35:52.845Z,53.30
2018-10-19T14:38:20.509Z,52.30
2018-10-19T14:40:48.212Z,51.70
2018-10-19T14:43:15.905Z,50.90
2018-10-19T14:48:18.157Z,52.00
2018-10-19T14:50:45.817Z,51.10
2018-10-19T14:53:13.516Z,49.50
2018-10-19T14:55:41.276Z,50.70
2018-10-19T14:58:08.929Z,50.80
2018-10-19T15:00:36.641Z,51.90
2018-10-19T15:03:04.447Z,52.00
2018-10-19T15:05:32.128Z,52.00
2018-10-19T15:07:59.822Z,50.90
2018-10-19T15:10:27.627Z,50.20
2018-10-19T15:12:55.178Z,50.50
2018-10-19T15:15:23.335Z,50.40
2018-10-19T15:17:51.033Z,50.30
2018-10-19T15:20:18.937Z,50.80
2018-10-19T15:22:46.833Z,50.60
2018-10-19T15:25:14.746Z,50.20
2018-10-19T15:27:43.781Z,51.30
2018-10-19T15:30:13.004Z,51.50
2018-10-19T15:32:40.833Z,52.00
2018-10-19T15:35:09.044Z,52.10
2018-10-19T15:37:36.781Z,52.10
2018-10-19T15:40:04.996Z,51.60
2018-10-19T15:42:32.716Z,51.70
2018-10-19T15:45:00.489Z,52.10
2018-10-19T15:47:29.972Z,52.60
2018-10-19T15:49:58.009Z,52.70
2018-10-19T15:52:32.520Z,52.80
2018-10-19T15:55:00.235Z,52.50
2018-10-19T15:57:28.001Z,53.20
2018-10-19T15:59:55.754Z,53.70
2018-10-19T16:02:23.482Z,54.10
2018-10-19T16:04:51.217Z,54.80
2018-10-19T16:07:19.285Z,55.30
2018-10-19T16:09:47.474Z,56.50
2018-10-19T16:12:15.336Z,57.00
2018-10-19T16:17:12.644Z,56.20
2018-10-19T16:19:40.881Z,56.20
2018-10-19T16:22:08.676Z,56.40
2018-10-19T16:24:36.430Z,57.40
2018-10-19T16:27:04.256Z,57.90
2018-10-19T16:29:31.922Z,57.80
2018-10-19T16:32:06.350Z,57.80
2018-10-19T16:34:34.041Z,57.70
2018-10-19T16:37:01.715Z,57.60
2018-10-19T16:39:29.416Z,57.60
2018-10-19T16:41:57.130Z,57.80
2018-10-19T16:44:24.814Z,58.00
2018-10-19T16:46:52.521Z,58.70
2018-10-19T16:49:20.174Z,58.50
2018-10-19T16:51:47.881Z,58.90
2018-10-19T16:54:15.709Z,59.60
2018-10-19T16:56:43.300Z,60.20
2018-10-19T16:59:11.062Z,60.10
2018-10-19T17:01:38.765Z,61.10
2018-10-19T17:04:06.740Z,61.70
2018-10-19T17:06:34.386Z,61.30
2018-10-19T17:09:02.146Z,61.70
2018-10-19T17:11:29.854Z,62.20
2018-10-19T17:13:57.534Z,61.60
2018-10-19T17:16:25.229Z,60.90
2018-10-19T17:18:52.911Z,61.20
2018-10-19T17:21:20.637Z,61.60
2018-10-19T17:23:48.362Z,62.60
2018-10-19T17:26:16.062Z,63.10
2018-10-19T17:28:43.772Z,62.60
2018-10-19T17:31:11.579Z,61.40
2018-10-19T17:33:39.272Z,62.40
2018-10-19T17:36:06.969Z,62.50
2018-10-19T17:38:34.592Z,62.90
2018-10-19T17:41:02.316Z,62.50
2018-10-19T17:43:30.079Z,63.10
2018-10-19T17:45:57.670Z,62.80
2018-10-19T17:48:25.356Z,62.70
2018-10-19T17:50:53.099Z,62.90
2018-10-19T17:53:20.802Z,63.20
2018-10-19T17:55:48.510Z,63.00
2018-10-19T17:58:16.162Z,63.00
2018-10-19T18:00:43.897Z,64.10
2018-10-19T18:03:11.621Z,64.90
2018-10-19T18:05:39.237Z,65.50
2018-10-19T18:08:06.933Z,66.40
2018-10-19T18:10:34.602Z,66.20
2018-10-19T18:13:02.370Z,65.20
2018-10-19T18:15:30.034Z,65.30
2018-10-19T18:17:57.684Z,65.00
2018-10-19T18:20:25.396Z,65.20
2018-10-19T18:22:53.260Z,65.30
2018-10-19T18:25:20.757Z,65.00
2018-10-19T18:27:48.478Z,64.80
2018-10-19T18:30:16.153Z,65.10
2018-10-19T18:32:43.798Z,65.30
2018-10-19T18:35:11.574Z,65.60
2018-10-19T18:37:39.646Z,65.50
2018-10-19T18:40:09.450Z,65.40
2018-10-19T18:42:37.168Z,65.90
2018-10-19T18:45:05.714Z,72.00
2018-10-19T18:47:33.444Z,72.20
2018-10-19T18:50:01.403Z,73.60
2018-10-19T18:52:29.235Z,73.50
2018-10-19T18:54:57.190Z,75.20
2018-10-19T18:57:24.987Z,77.40
2018-10-19T18:59:52.962Z,78.30
2018-10-19T19:02:20.805Z,79.00
2018-10-19T19:04:48.636Z,80.50
2018-10-19T19:07:16.423Z,80.00
2018-10-19T19:09:48.603Z,79.40
2018-10-19T19:12:16.445Z,81.30
2018-10-19T19:14:44.273Z,81.00
2018-10-19T19:17:12.016Z,81.30
2018-10-19T19:19:39.792Z,81.70
2018-10-19T19:22:07.473Z,81.90
2018-10-19T19:24:40.593Z,82.00
2018-10-19T19:27:08.292Z,82.30
2018-10-19T19:29:35.969Z,83.60
2018-10-19T19:32:03.765Z,83.00
2018-10-19T19:34:32.517Z,84.40
2018-10-19T19:37:00.210Z,93.80
2018-10-19T19:39:27.932Z,95.00
2018-10-19T19:42:59.830Z,95.40
2018-10-19T19:45:27.494Z,73.30
2018-10-19T19:48:00.641Z,70.90
2018-10-19T19:50:28.320Z,96.00
2018-10-19T19:52:56.085Z,96.00
2018-10-19T19:55:23.858Z,95.90
2018-10-19T19:57:51.521Z,95.80
2018-10-19T20:00:19.271Z,95.70
2018-10-19T20:02:46.964Z,95.90
2018-10-19T20:05:14.707Z,95.50
2018-10-19T20:07:42.362Z,95.40
2018-10-19T20:10:10.060Z,95.60
2018-10-19T20:12:37.939Z,95.50
2018-10-19T20:15:06.956Z,95.60
2018-10-19T20:17:34.718Z,95.80
2018-10-19T20:20:02.471Z,96.00
2018-10-19T20:22:30.154Z,96.10
2018-10-19T20:24:57.845Z,96.10
2018-10-19T20:27:25.560Z,96.30
2018-10-19T20:29:53.255Z,96.30
2018-10-19T20:32:21.127Z,96.60
2018-10-19T20:34:48.759Z,96.50
2018-10-19T20:37:16.518Z,96.50
2018-10-19T20:39:44.238Z,96.30
2018-10-19T20:42:11.958Z,70.40
2018-10-19T20:44:39.724Z,70.50
2018-10-19T20:47:07.497Z,70.70
2018-10-19T20:49:35.117Z,71.10
2018-10-19T20:52:02.855Z,71.30
2018-10-19T20:54:30.524Z,71.10
2018-10-19T20:56:58.280Z,71.00
2018-10-19T20:59:25.981Z,71.00
2018-10-19T21:01:53.835Z,71.00
2018-10-19T21:04:21.589Z,71.10
2018-10-19T21:06:49.378Z,71.20
2018-10-19T21:09:17.134Z,71.10
2018-10-19T21:11:44.898Z,71.50
2018-10-19T21:14:12.687Z,71.40
2018-10-19T21:16:40.310Z,71.40
2018-10-19T21:19:08.090Z,71.80
2018-10-19T21:21:35.765Z,71.60
2018-10-19T21:24:03.458Z,71.70
2018-10-19T21:26:31.158Z,71.60
2018-10-19T21:28:58.940Z,71.70
2018-10-19T21:31:26.587Z,71.80
2018-10-19T21:33:54.269Z,72.00
2018-10-19T21:36:21.972Z,71.90
2018-10-19T21:38:49.641Z,71.90
2018-10-19T21:41:17.316Z,71.80
2018-10-19T21:43:44.982Z,71.80
2018-10-19T21:46:12.658Z,71.90
2018-10-19T21:48:40.317Z,71.90
2018-10-19T21:51:07.989Z,71.90
2018-10-19T21:53:35.649Z,71.80
2018-10-19T21:56:03.406Z,72.00
2018-10-19T21:58:31.032Z,72.10
2018-10-19T22:00:58.696Z,72.30
2018-10-19T22:03:26.387Z,72.10
2018-10-19T22:05:54.053Z,72.10
2018-10-19T22:08:21.719Z,72.10
2018-10-19T22:10:49.396Z,72.20
2018-10-19T22:13:17.060Z,72.30
2018-10-19T22:15:44.724Z,72.10
2018-10-19T22:18:12.400Z,72.10
2018-10-19T22:20:40.049Z,72.80
2018-10-19T22:23:07.820Z,72.40
2018-10-19T22:25:35.428Z,72.40
2018-10-19T22:28:03.102Z,72.60
2018-10-19T22:30:30.756Z,73.50
2018-10-19T22:32:58.418Z,72.80
2018-10-19T22:35:26.097Z,72.80
2018-10-19T22:37:53.741Z,72.90
2018-10-19T22:40:21.433Z,73.30
2018-10-19T22:42:49.097Z,74.10
2018-10-19T22:45:16.761Z,74.30
2018-10-19T22:47:44.451Z,74.30
2018-10-19T22:50:12.093Z,74.50
2018-10-19T22:52:39.773Z,74.40
2018-10-19T22:55:07.548Z,74.30
2018-10-19T22:57:35.269Z,74.20
2018-10-19T23:00:02.999Z,74.20
2018-10-19T23:02:30.661Z,74.30
2018-10-19T23:04:58.383Z,74.50
2018-10-19T23:07:26.033Z,74.70
2018-10-19T23:09:53.698Z,75.00
2018-10-19T23:12:21.349Z,75.00
2018-10-19T23:14:49.042Z,75.30
2018-10-19T23:17:16.741Z,75.40
2018-10-19T23:19:44.399Z,75.60
2018-10-19T23:22:12.082Z,75.60
2018-10-19T23:24:39.761Z,75.90
2018-10-19T23:27:07.416Z,75.80
2018-10-19T23:29:35.090Z,76.00
2018-10-19T23:32:02.750Z,76.20
2018-10-19T23:34:30.496Z,76.20
2018-10-19T23:36:58.204Z,76.30
2018-10-19T23:39:25.852Z,76.30
2018-10-19T23:41:53.533Z,77.10
2018-10-19T23:44:21.201Z,77.10
2018-10-19T23:46:48.893Z,77.20
2018-10-19T23:49:16.614Z,77.00
2018-10-19T23:51:44.234Z,77.30
2018-10-19T23:54:11.921Z,77.20
2018-10-19T23:56:39.572Z,77.10
2018-10-19T23:59:07.225Z,77.40
